Time;durP1;ratioP1;P1;durP2;ratioP2;P2;SDS_P1;SDS_P2;PMS_P1;PMS_P2;Temp;Humidity;BMP_temperature;BMP_pressure;BME280_temperature;BME280_humidity;BME280_pressure;Samples;Min_cycle;Max_cycle;Signal;HPM_P1;HPM_P2
2022/11/15 00:00:51;;;;;;;7.80;5.30;;;25.70;99.90;;;;;;4924277;29;19919;-45
2022/11/15 00:03:22;;;;;;;9.70;5.15;;;25.70;99.90;;;;;;4932983;29;20028;-45
2022/11/15 00:05:48;;;;;;;8.48;5.45;;;25.70;99.90;;;;;;4934413;29;20462;-44
2022/11/15 00:08:14;;;;;;;6.97;4.47;;;25.70;99.90;;;;;;4932147;29;20110;-45
2022/11/15 00:10:40;;;;;;;6.18;4.45;;;25.70;99.90;;;;;;4935737;29;20095;-44
2022/11/15 00:13:07;;;;;;;12.02;4.88;;;25.70;99.90;;;;;;4935406;29;20032;-45
2022/11/15 00:15:37;;;;;;;6.53;4.40;;;25.70;99.90;;;;;;4935583;29;20501;-46
2022/11/15 00:18:04;;;;;;;5.13;4.30;;;25.70;99.90;;;;;;4935529;29;20035;-46
2022/11/15 00:20:31;;;;;;;6.80;4.35;;;25.70;99.90;;;;;;4935881;29;20048;-45
2022/11/15 00:22:57;;;;;;;7.37;3.97;;;25.70;99.90;;;;;;4935567;29;20481;-46
2022/11/15 00:25:22;;;;;;;6.38;4.13;;;25.60;99.90;;;;;;4929338;29;20047;-45
2022/11/15 00:27:48;;;;;;;6.90;4.03;;;25.60;99.90;;;;;;4935198;29;20024;-44
2022/11/15 00:30:14;;;;;;;6.32;4.35;;;25.60;99.90;;;;;;4934681;29;20028;-46
2022/11/15 00:32:39;;;;;;;5.78;3.80;;;25.60;99.90;;;;;;4927146;29;20031;-45
2022/11/15 00:35:05;;;;;;;8.07;4.13;;;25.60;99.90;;;;;;4935240;29;20361;-45
2022/11/15 00:37:31;;;;;;;6.63;4.38;;;25.60;99.90;;;;;;4935616;29;20026;-44
2022/11/15 00:39:57;;;;;;;10.00;4.15;;;25.60;99.90;;;;;;4935481;29;20110;-46
2022/11/15 00:42:22;;;;;;;6.50;3.90;;;25.60;99.90;;;;;;4933748;29;20023;-45
2022/11/15 00:44:48;;;;;;;6.03;4.10;;;25.60;99.90;;;;;;4935404;29;20354;-45
2022/11/15 00:47:14;;;;;;;8.80;4.35;;;25.60;99.90;;;;;;4935218;29;20032;-46
2022/11/15 00:49:40;;;;;;;6.20;3.80;;;25.60;99.90;;;;;;4935089;29;20016;-46
2022/11/15 00:52:06;;;;;;;6.80;4.28;;;25.60;99.90;;;;;;4935612;29;20381;-46
2022/11/15 00:54:32;;;;;;;6.07;3.92;;;25.60;99.90;;;;;;4933826;29;20090;-46
2022/11/15 00:56:57;;;;;;;5.75;3.70;;;25.60;99.90;;;;;;4934923;29;20031;-46
2022/11/15 00:59:23;;;;;;;5.93;4.00;;;25.50;99.90;;;;;;4937076;29;20024;-45
2022/11/15 01:01:49;;;;;;;8.68;4.10;;;25.60;99.90;;;;;;4932032;29;20090;-45
2022/11/15 01:04:15;;;;;;;5.35;3.95;;;25.50;99.90;;;;;;4938346;29;20024;-47
2022/11/15 01:06:40;;;;;;;6.20;3.97;;;25.50;99.90;;;;;;4934721;29;20047;-45
2022/11/15 01:09:06;;;;;;;4.80;3.67;;;25.50;99.90;;;;;;4938690;29;20034;-46
2022/11/15 01:11:32;;;;;;;6.25;3.85;;;25.50;99.90;;;;;;4938440;29;20035;-45
2022/11/15 01:13:57;;;;;;;4.38;3.33;;;25.60;99.90;;;;;;4933572;29;20024;-44
2022/11/15 01:16:23;;;;;;;6.15;3.90;;;25.50;99.90;;;;;;4921257;29;20401;-46
2022/11/15 01:18:50;;;;;;;6.65;3.00;;;25.50;99.90;;;;;;4919737;29;20024;-46
2022/11/15 01:21:18;;;;;;;6.07;4.25;;;25.50;99.90;;;;;;4928681;29;20477;-46
2022/11/15 01:23:44;;;;;;;6.32;3.28;;;25.50;99.90;;;;;;4938591;29;20031;-46
2022/11/15 01:26:13;;;;;;;4.57;3.30;;;25.50;99.90;;;;;;4938069;29;20503;-46
2022/11/15 01:28:40;;;;;;;5.75;3.72;;;25.50;99.90;;;;;;4938206;29;20027;-47
2022/11/15 01:31:15;;;;;;;4.72;3.47;;;25.50;99.90;;;;;;4938239;29;20039;-45
2022/11/15 01:33:41;;;;;;;6.05;3.80;;;25.50;99.90;;;;;;4937860;29;20020;-46
2022/11/15 01:36:11;;;;;;;6.40;3.67;;;25.50;99.90;;;;;;4936620;29;20440;-46
2022/11/15 01:38:37;;;;;;;8.43;4.35;;;25.50;99.90;;;;;;4920523;29;20047;-46
2022/11/15 01:41:03;;;;;;;9.02;4.50;;;25.50;99.90;;;;;;4918180;29;20460;-46
2022/11/15 01:43:32;;;;;;;6.07;4.22;;;25.50;99.90;;;;;;4921812;29;20035;-46
2022/11/15 01:46:25;;;;;;;4.63;3.47;;;25.50;99.90;;;;;;4932170;29;20024;-46
2022/11/15 01:48:54;;;;;;;6.65;4.30;;;25.40;99.90;;;;;;4929265;29;20034;-48
2022/11/15 01:51:23;;;;;;;6.50;3.60;;;25.50;99.90;;;;;;4919046;29;20052;-46
2022/11/15 01:53:54;;;;;;;6.30;3.85;;;25.40;99.90;;;;;;4926769;29;20121;-47
2022/11/15 01:56:25;;;;;;;4.80;3.53;;;25.40;99.90;;;;;;4937280;29;20063;-46
2022/11/15 02:01:34;;;;;;;4.57;3.25;;;25.40;99.90;;;;;;4975027;28;20043;-50
2022/11/15 02:04:21;;;;;;;6.32;3.72;;;25.40;99.90;;;;;;4975754;28;20067;-50
2022/11/15 02:06:48;;;;;;;4.78;3.22;;;25.40;99.90;;;;;;4965205;28;20027;-50
2022/11/15 02:09:14;;;;;;;4.47;3.00;;;25.40;99.90;;;;;;4975230;28;20062;-50
2022/11/15 02:11:41;;;;;;;5.82;3.58;;;25.40;99.90;;;;;;4973536;28;20050;-49
2022/11/15 02:14:08;;;;;;;7.03;3.53;;;25.40;99.90;;;;;;4974936;28;20038;-49
2022/11/15 02:16:59;;;;;;;4.10;2.75;;;25.40;99.90;;;;;;4975875;28;20411;-49
2022/11/15 02:19:53;;;;;;;5.05;2.95;;;25.40;99.90;;;;;;4975748;28;20019;-50
2022/11/15 02:23:05;;;;;;;4.15;2.90;;;25.30;99.90;;;;;;4974647;28;20026;-50
2022/11/15 02:26:07;;;;;;;4.45;2.58;;;25.30;99.90;;;;;;4956606;28;20046;-50
2022/11/15 02:28:36;;;;;;;3.80;2.70;;;25.30;99.90;;;;;;4975720;28;20387;-50
2022/11/15 02:31:19;;;;;;;4.60;2.63;;;25.30;99.90;;;;;;4975473;28;20029;-50
2022/11/15 02:33:48;;;;;;;5.82;2.83;;;25.30;99.90;;;;;;4974534;28;20050;-50
2022/11/15 02:36:23;;;;;;;4.90;2.72;;;25.30;99.90;;;;;;4972581;28;20054;-51
2022/11/15 02:39:19;;;;;;;5.00;2.67;;;25.30;99.90;;;;;;4971918;28;20444;-51
2022/11/15 02:42:01;;;;;;;5.45;2.83;;;25.30;99.90;;;;;;4972181;28;20089;-50
2022/11/15 02:44:37;;;;;;;5.30;2.80;;;25.30;99.90;;;;;;4973608;28;20451;-50
2022/11/15 02:47:14;;;;;;;5.15;3.10;;;25.30;99.90;;;;;;4974177;28;20033;-51
2022/11/15 02:49:50;;;;;;;6.07;2.50;;;25.20;99.90;;;;;;4974673;28;20050;-50
2022/11/15 02:52:21;;;;;;;5.30;2.80;;;25.20;99.90;;;;;;4975082;28;20485;-51
2022/11/15 02:54:57;;;;;;;3.65;2.88;;;25.20;99.90;;;;;;4974714;28;20557;-50
2022/11/15 02:57:57;;;;;;;4.87;2.47;;;25.20;99.90;;;;;;4974825;28;20077;-51
2022/11/15 03:00:23;;;;;;;3.72;2.33;;;25.20;99.90;;;;;;4975326;28;20046;-50
2022/11/15 03:03:07;;;;;;;4.15;2.72;;;25.20;99.90;;;;;;4957368;28;20030;-50
2022/11/15 03:05:43;;;;;;;4.13;2.85;;;25.20;99.90;;;;;;4974471;28;20484;-51
2022/11/15 03:08:22;;;;;;;3.80;2.85;;;25.20;99.90;;;;;;4972954;28;20038;-51
2022/11/15 03:11:09;;;;;;;5.47;2.65;;;25.20;99.90;;;;;;4972326;28;20042;-51
2022/11/15 03:14:01;;;;;;;5.50;2.90;;;25.20;99.90;;;;;;4974340;28;20038;-50
2022/11/15 03:17:02;;;;;;;5.10;3.00;;;25.10;99.90;;;;;;4974618;28;20170;-54
2022/11/15 03:19:44;;;;;;;4.75;3.17;;;25.10;99.90;;;;;;4963629;28;20030;-51
2022/11/15 03:22:14;;;;;;;5.10;3.33;;;25.10;99.90;;;;;;4974335;28;20022;-50
2022/11/15 03:24:40;;;;;;;4.35;3.00;;;25.10;99.90;;;;;;4974605;28;20027;-51
2022/11/15 03:27:09;;;;;;;4.17;3.00;;;25.10;99.90;;;;;;4974166;28;20387;-51
2022/11/15 03:29:46;;;;;;;5.18;2.90;;;25.10;99.90;;;;;;4974484;28;20315;-50
2022/11/15 03:32:17;;;;;;;4.15;2.75;;;25.10;99.90;;;;;;4974398;28;20114;-51
2022/11/15 03:34:49;;;;;;;6.72;2.90;;;25.10;99.90;;;;;;4973957;28;20478;-51
2022/11/15 03:37:17;;;;;;;5.10;3.00;;;25.10;99.90;;;;;;4974644;28;20054;-51
2022/11/15 03:39:43;;;;;;;4.32;2.78;;;25.10;99.90;;;;;;4955938;28;20027;-53
2022/11/15 03:42:21;;;;;;;4.53;2.92;;;25.10;99.90;;;;;;4972419;28;20093;-50
2022/11/15 03:45:07;;;;;;;4.90;2.88;;;25.10;99.90;;;;;;4974296;28;20054;-50
2022/11/15 03:47:38;;;;;;;6.18;2.78;;;25.10;99.90;;;;;;4946554;28;20181;-51
2022/11/15 03:50:18;;;;;;;4.95;2.90;;;25.00;99.90;;;;;;4973894;28;20033;-51
2022/11/15 03:52:49;;;;;;;4.40;2.78;;;25.00;99.90;;;;;;4974084;28;20584;-50
2022/11/15 03:55:20;;;;;;;4.03;2.83;;;25.00;99.90;;;;;;4974175;28;20384;-51
2022/11/15 03:57:50;;;;;;;5.10;2.97;;;25.00;99.90;;;;;;4973886;28;20419;-52
2022/11/15 04:00:16;;;;;;;4.15;2.65;;;25.00;99.90;;;;;;4974616;28;20062;-50
2022/11/15 04:02:41;;;;;;;3.47;2.40;;;25.00;99.90;;;;;;4972958;28;20023;-52
2022/11/15 04:05:07;;;;;;;4.65;2.70;;;25.00;99.90;;;;;;4973870;28;20033;-52
2022/11/15 04:07:33;;;;;;;5.03;2.88;;;25.00;99.90;;;;;;4972475;28;20136;-52
2022/11/15 04:10:02;;;;;;;4.88;2.65;;;25.00;99.90;;;;;;4972931;28;20034;-52
2022/11/15 04:12:31;;;;;;;3.85;2.60;;;25.00;99.90;;;;;;4968426;28;20035;-52
2022/11/15 04:15:07;;;;;;;4.82;2.67;;;25.00;99.90;;;;;;4972867;28;20033;-52
2022/11/15 04:17:37;;;;;;;3.63;2.63;;;25.00;99.90;;;;;;4971939;28;20026;-52
2022/11/15 04:25:37;;;;;;;3.35;2.40;;;25.00;99.90;;;;;;4973493;28;20033;-52
2022/11/15 04:28:02;;;;;;;3.65;2.80;;;24.90;99.90;;;;;;4972899;28;20030;-52
2022/11/15 04:30:28;;;;;;;3.55;2.53;;;25.00;99.90;;;;;;4955732;28;20720;-52
2022/11/15 04:32:54;;;;;;;5.35;2.67;;;24.90;99.90;;;;;;4972024;28;20399;-52
2022/11/15 04:35:19;;;;;;;3.53;2.50;;;24.90;99.90;;;;;;4974531;28;20031;-52
2022/11/15 04:37:45;;;;;;;4.40;2.35;;;24.90;99.90;;;;;;4975572;28;20027;-51
2022/11/15 04:40:11;;;;;;;5.72;2.65;;;24.90;99.90;;;;;;4974436;28;20125;-51
2022/11/15 04:42:37;;;;;;;3.75;2.28;;;24.90;99.90;;;;;;4970138;28;20348;-51
2022/11/15 04:45:03;;;;;;;3.60;2.33;;;24.90;99.90;;;;;;4975347;28;20467;-52
2022/11/15 04:47:29;;;;;;;3.75;2.60;;;24.90;99.90;;;;;;4958913;28;20027;-51
2022/11/15 04:49:55;;;;;;;5.82;3.20;;;24.90;99.90;;;;;;4977396;28;20030;-51
2022/11/15 04:52:21;;;;;;;5.22;2.10;;;24.90;99.90;;;;;;4977523;28;20023;-51
2022/11/15 04:54:46;;;;;;;4.13;2.38;;;24.90;99.90;;;;;;4977279;28;20471;-52
2022/11/15 04:57:12;;;;;;;13.23;2.67;;;24.80;99.90;;;;;;4977653;28;20027;-51
2022/11/15 04:59:38;;;;;;;5.25;2.40;;;24.80;99.90;;;;;;4987245;23;20063;-45
2022/11/15 05:02:04;;;;;;;6.30;2.83;;;24.80;99.90;;;;;;5010108;28;20034;-45
2022/11/15 05:04:29;;;;;;;3.15;2.33;;;24.80;99.90;;;;;;5016140;28;20018;-45
2022/11/15 05:06:55;;;;;;;4.88;2.30;;;24.80;99.90;;;;;;5016429;28;20049;-45
2022/11/15 05:09:21;;;;;;;3.85;2.60;;;24.80;99.90;;;;;;5015912;28;20590;-46
2022/11/15 05:11:47;;;;;;;5.57;2.55;;;24.80;99.90;;;;;;5011277;28;20200;-46
2022/11/15 05:14:13;;;;;;;4.45;2.63;;;24.80;99.90;;;;;;4995176;28;20088;-46
2022/11/15 05:16:39;;;;;;;6.05;2.55;;;24.80;99.90;;;;;;4994674;28;20034;-46
2022/11/15 05:19:05;;;;;;;5.53;2.60;;;24.80;99.90;;;;;;4995745;28;20148;-46
2022/11/15 05:21:32;;;;;;;4.43;2.63;;;24.80;99.90;;;;;;4995755;28;20023;-45
2022/11/15 05:23:58;;;;;;;6.80;2.30;;;24.80;99.90;;;;;;4996688;28;20501;-45
2022/11/15 05:26:24;;;;;;;3.67;2.17;;;24.80;99.90;;;;;;4996608;28;20030;-45
2022/11/15 05:28:58;;;;;;;5.78;2.80;;;24.80;99.90;;;;;;4996475;28;20022;-46
2022/11/15 05:31:25;;;;;;;4.25;2.80;;;24.80;99.90;;;;;;4996441;28;20029;-46
2022/11/15 05:33:52;;;;;;;2.97;2.22;;;24.80;99.90;;;;;;4996405;28;20049;-45
2022/11/15 05:36:26;;;;;;;4.53;2.60;;;24.80;99.90;;;;;;4996299;28;20121;-46
2022/11/15 05:38:53;;;;;;;8.88;2.60;;;24.80;99.90;;;;;;4996232;28;20022;-45
2022/11/15 05:41:25;;;;;;;4.05;3.08;;;24.70;99.90;;;;;;4996217;28;20030;-45
2022/11/15 05:43:51;;;;;;;3.20;2.53;;;24.70;99.90;;;;;;4996092;28;20102;-46
2022/11/15 05:46:18;;;;;;;6.32;2.75;;;24.70;99.90;;;;;;4994931;28;20023;-46
2022/11/15 05:48:49;;;;;;;3.83;2.30;;;24.70;99.90;;;;;;4996067;28;20030;-46
2022/11/15 05:51:17;;;;;;;4.07;2.40;;;24.70;99.90;;;;;;4996166;28;20070;-46
2022/11/15 05:53:44;;;;;;;4.10;3.08;;;24.70;99.90;;;;;;4995992;28;20026;-46
2022/11/15 05:56:10;;;;;;;4.53;2.42;;;24.70;99.90;;;;;;5010947;28;20441;-46
2022/11/15 05:58:37;;;;;;;3.33;2.40;;;24.70;99.90;;;;;;4995882;28;20473;-46
2022/11/15 06:01:03;;;;;;;3.60;2.28;;;24.70;99.90;;;;;;4995696;28;20053;-45
2022/11/15 06:03:29;;;;;;;5.97;2.72;;;24.70;99.90;;;;;;4995836;28;20030;-46
2022/11/15 06:05:55;;;;;;;4.38;2.38;;;24.70;99.90;;;;;;4995720;28;20023;-46
2022/11/15 06:08:21;;;;;;;2.57;1.93;;;24.70;99.90;;;;;;5010935;28;20046;-46
2022/11/15 06:10:47;;;;;;;3.08;2.03;;;24.70;99.90;;;;;;4995863;28;20338;-45
2022/11/15 06:13:13;;;;;;;4.05;2.50;;;24.70;99.90;;;;;;4995805;28;20161;-46
2022/11/15 06:15:38;;;;;;;4.22;2.58;;;24.70;99.90;;;;;;4995687;28;20062;-46
2022/11/15 06:18:04;;;;;;;4.28;1.90;;;24.70;99.90;;;;;;4994367;28;20412;-46
2022/11/15 06:20:30;;;;;;;3.03;2.33;;;24.70;99.90;;;;;;4995519;28;20057;-47
2022/11/15 06:23:00;;;;;;;5.88;2.47;;;24.70;99.90;;;;;;4995387;28;20441;-46
2022/11/15 06:25:27;;;;;;;4.43;2.30;;;24.60;99.90;;;;;;4995267;28;20023;-46
2022/11/15 06:27:54;;;;;;;3.97;2.13;;;24.60;99.90;;;;;;4995462;28;20034;-46
2022/11/15 06:30:20;;;;;;;6.77;2.17;;;24.60;99.90;;;;;;5010453;28;20030;-46
2022/11/15 06:32:46;;;;;;;4.68;2.35;;;24.60;99.90;;;;;;4995121;28;20256;-46
2022/11/15 06:35:13;;;;;;;6.22;2.38;;;24.60;99.90;;;;;;4995056;28;20031;-46
2022/11/15 06:37:39;;;;;;;2.78;1.90;;;24.60;99.90;;;;;;4995240;28;20018;-46
2022/11/15 06:40:05;;;;;;;3.50;1.88;;;24.60;99.90;;;;;;4995275;28;20027;-47
2022/11/15 06:42:32;;;;;;;4.43;2.33;;;24.60;99.90;;;;;;4995179;28;20022;-46
2022/11/15 06:44:57;;;;;;;5.78;2.72;;;24.60;99.90;;;;;;5010092;28;20034;-46
2022/11/15 06:47:23;;;;;;;4.10;1.92;;;24.60;99.90;;;;;;4994725;28;20106;-46
2022/11/15 06:49:49;;;;;;;4.50;1.90;;;24.60;99.90;;;;;;4994895;28;20438;-46
2022/11/15 06:52:14;;;;;;;4.07;2.10;;;24.60;99.90;;;;;;5010446;28;20018;-46
2022/11/15 06:54:40;;;;;;;5.20;2.70;;;24.60;99.90;;;;;;4994824;28;20030;-46
2022/11/15 06:57:06;;;;;;;5.80;2.42;;;24.50;99.90;;;;;;4994361;28;20029;-46
2022/11/15 06:59:32;;;;;;;6.32;2.53;;;24.60;99.90;;;;;;4993429;28;20030;-46
2022/11/15 07:01:57;;;;;;;4.65;2.03;;;24.60;99.90;;;;;;4994660;28;20105;-46
2022/11/15 07:04:23;;;;;;;6.60;2.55;;;24.50;99.90;;;;;;4994627;28;20080;-46
2022/11/15 07:06:49;;;;;;;4.50;2.80;;;24.50;99.90;;;;;;4994655;28;20023;-46
2022/11/15 07:09:15;;;;;;;4.75;2.70;;;24.50;99.90;;;;;;4994479;28;20026;-46
2022/11/15 07:11:40;;;;;;;5.93;2.38;;;24.50;99.90;;;;;;4994544;28;20030;-47
2022/11/15 07:14:06;;;;;;;5.30;2.45;;;24.50;99.90;;;;;;4994641;28;20105;-47
2022/11/15 07:16:32;;;;;;;6.38;2.58;;;24.50;99.90;;;;;;4994557;28;20042;-46
2022/11/15 07:18:58;;;;;;;3.88;2.10;;;24.50;99.90;;;;;;5009443;28;20023;-46
2022/11/15 07:21:23;;;;;;;6.53;2.53;;;24.50;99.90;;;;;;4994499;28;20128;-47
2022/11/15 07:23:49;;;;;;;6.63;2.88;;;24.50;99.90;;;;;;4994404;28;20065;-46
2022/11/15 07:26:15;;;;;;;3.83;2.28;;;24.50;99.90;;;;;;4994435;28;20462;-45
2022/11/15 07:28:41;;;;;;;5.57;2.95;;;24.50;99.90;;;;;;4994105;28;20034;-45
2022/11/15 07:31:08;;;;;;;7.25;2.88;;;24.50;99.90;;;;;;4994224;28;20018;-46
2022/11/15 07:33:34;;;;;;;6.35;3.22;;;24.50;99.90;;;;;;4994174;28;20460;-45
2022/11/15 07:36:05;;;;;;;4.25;2.42;;;24.50;99.90;;;;;;4993973;28;20042;-45
2022/11/15 07:38:32;;;;;;;6.13;2.90;;;24.50;99.90;;;;;;5009122;28;20072;-46
2022/11/15 07:40:59;;;;;;;4.63;3.33;;;24.50;99.90;;;;;;4994053;28;20035;-46
2022/11/15 07:43:27;;;;;;;;;;;24.50;99.90;;;;;;4994461;28;20026;-45
2022/11/15 07:45:53;;;;;;;3.67;2.60;;;24.50;99.90;;;;;;4993935;28;20001;-45
2022/11/15 07:48:19;;;;;;;4.50;2.67;;;24.50;99.90;;;;;;4994185;28;20410;-46
2022/11/15 07:50:45;;;;;;;3.83;2.63;;;24.60;99.90;;;;;;4993977;28;20062;-46
2022/11/15 07:53:11;;;;;;;4.35;2.80;;;24.60;99.90;;;;;;4994022;28;20069;-46
2022/11/15 07:55:39;;;;;;;5.30;2.97;;;24.50;99.90;;;;;;4993915;28;20506;-46
2022/11/15 07:58:07;;;;;;;4.53;3.58;;;24.60;99.90;;;;;;4993762;28;20023;-46
2022/11/15 08:00:34;;;;;;;8.38;3.03;;;24.60;99.90;;;;;;4993740;28;20050;-46
2022/11/15 08:03:08;;;;;;;6.53;3.20;;;24.60;99.90;;;;;;4994117;28;20080;-46
2022/11/15 08:05:35;;;;;;;5.53;3.20;;;24.60;99.90;;;;;;4993866;28;20029;-46
2022/11/15 08:08:01;;;;;;;4.93;2.65;;;24.60;99.90;;;;;;4993900;28;20053;-46
2022/11/15 08:10:28;;;;;;;6.13;3.45;;;24.60;99.90;;;;;;4996757;28;20117;-47
2022/11/15 08:13:05;;;;;;;4.40;3.00;;;24.60;99.90;;;;;;4997853;28;20026;-46
2022/11/15 08:15:32;;;;;;;4.95;3.15;;;24.60;99.90;;;;;;4997706;28;20042;-46
2022/11/15 08:17:59;;;;;;;5.25;3.55;;;24.60;99.90;;;;;;4997713;28;20026;-46
2022/11/15 08:20:26;;;;;;;;;;;24.70;99.90;;;;;;4998053;28;20442;-46
2022/11/15 08:22:52;;;;;;;4.47;2.97;;;24.70;99.90;;;;;;4997484;28;19910;-47
2022/11/15 08:25:18;;;;;;;4.82;2.90;;;24.70;99.90;;;;;;4997738;28;20386;-46
2022/11/15 08:27:44;;;;;;;5.65;3.28;;;24.70;99.90;;;;;;4997506;28;20518;-46
2022/11/15 08:30:11;;;;;;;6.00;2.90;;;24.70;99.90;;;;;;4997528;28;20107;-47
2022/11/15 08:32:36;;;;;;;4.40;3.00;;;24.80;99.90;;;;;;4997487;28;20378;-46
2022/11/15 08:35:02;;;;;;;5.13;2.85;;;24.80;99.90;;;;;;4997380;28;20039;-47
2022/11/15 08:37:29;;;;;;;5.50;3.15;;;24.90;99.90;;;;;;4996087;28;20035;-46
2022/11/15 08:39:54;;;;;;;7.13;3.20;;;24.90;99.90;;;;;;4997484;28;20029;-46
2022/11/15 08:42:20;;;;;;;5.97;3.55;;;25.00;99.90;;;;;;4997434;28;20445;-46
2022/11/15 08:44:46;;;;;;;7.03;3.67;;;25.00;99.90;;;;;;4997135;28;20026;-46
2022/11/15 08:47:13;;;;;;;5.03;3.13;;;25.10;99.90;;;;;;4997002;28;20019;-46
2022/11/15 08:49:39;;;;;;;5.43;3.28;;;25.10;99.90;;;;;;4997081;28;20455;-46
2022/11/15 08:52:05;;;;;;;6.05;3.53;;;25.10;99.90;;;;;;4997206;28;20026;-46
2022/11/15 08:54:31;;;;;;;6.63;3.97;;;25.20;99.90;;;;;;5012160;28;20048;-46
2022/11/15 08:56:57;;;;;;;5.95;3.53;;;25.20;99.90;;;;;;4996965;28;20441;-46
2022/11/15 08:59:23;;;;;;;8.85;4.30;;;25.20;99.90;;;;;;4996838;28;20097;-46
2022/11/15 09:01:48;;;;;;;6.65;4.15;;;25.20;99.90;;;;;;5011751;28;20054;-46
2022/11/15 09:04:14;;;;;;;6.18;4.57;;;25.20;99.90;;;;;;4996879;28;20097;-46
2022/11/15 09:06:40;;;;;;;9.55;4.80;;;25.20;99.90;;;;;;4996798;28;20073;-46
2022/11/15 09:09:06;;;;;;;5.90;4.10;;;25.20;99.90;;;;;;4995816;28;20018;-45
2022/11/15 09:11:31;;;;;;;8.05;4.30;;;25.20;99.90;;;;;;4996903;28;20054;-45
2022/11/15 09:13:57;;;;;;;6.90;4.47;;;25.20;99.90;;;;;;4996702;28;20348;-46
2022/11/15 09:16:23;;;;;;;6.55;4.40;;;25.20;99.90;;;;;;4996454;28;20414;-45
2022/11/15 09:18:49;;;;;;;7.18;4.47;;;25.20;99.90;;;;;;4996667;28;20125;-46
2022/11/15 09:21:14;;;;;;;5.57;4.75;;;25.20;99.90;;;;;;4996284;28;20486;-46
2022/11/15 09:23:40;;;;;;;7.20;4.72;;;25.20;99.90;;;;;;4996226;28;20065;-46
2022/11/15 09:26:06;;;;;;;7.63;5.18;;;25.20;99.90;;;;;;4996474;28;20113;-45
2022/11/15 09:28:33;;;;;;;7.90;5.25;;;25.20;99.90;;;;;;4996406;28;20037;-46
2022/11/15 09:31:01;;;;;;;6.68;4.72;;;25.20;99.90;;;;;;5011456;28;20022;-45
2022/11/15 09:33:27;;;;;;;8.05;4.88;;;25.20;99.90;;;;;;4996303;28;20026;-46
2022/11/15 09:35:53;;;;;;;7.22;4.82;;;25.30;99.90;;;;;;4996300;28;20539;-46
2022/11/15 09:38:19;;;;;;;8.50;5.95;;;25.30;99.90;;;;;;4996258;28;20037;-46
2022/11/15 09:40:51;;;;;;;11.10;5.93;;;25.30;99.90;;;;;;4994946;28;20494;-45
2022/11/15 09:43:28;;;;;;;8.77;6.35;;;25.30;99.90;;;;;;4996073;28;20386;-46
2022/11/15 09:46:18;;;;;;;9.50;6.13;;;25.30;99.90;;;;;;5011161;28;20034;-46
2022/11/15 09:48:53;;;;;;;9.20;5.90;;;25.30;99.90;;;;;;4995895;28;20026;-46
2022/11/15 09:51:25;;;;;;;10.95;6.03;;;25.30;99.90;;;;;;4995998;28;20030;-46
2022/11/15 09:54:12;;;;;;;10.68;6.00;;;25.30;99.90;;;;;;4996065;28;20046;-46
2022/11/15 09:56:41;;;;;;;;;;;25.30;99.90;;;;;;4996309;28;20111;-46
2022/11/15 09:59:40;;;;;;;7.63;6.03;;;25.30;99.90;;;;;;4995830;28;19913;-45
2022/11/15 10:02:18;;;;;;;9.90;6.82;;;25.30;99.90;;;;;;5010860;28;20490;-46
2022/11/15 10:04:44;;;;;;;11.18;6.43;;;25.30;99.90;;;;;;4995793;28;20057;-46
2022/11/15 10:07:21;;;;;;;11.25;7.35;;;25.20;99.90;;;;;;4995646;28;20382;-45
2022/11/15 10:09:55;;;;;;;11.48;7.40;;;25.20;99.90;;;;;;4995592;28;20035;-46
2022/11/15 10:12:20;;;;;;;9.68;7.28;;;25.20;99.90;;;;;;5010517;28;20431;-45
2022/11/15 10:14:48;;;;;;;9.90;6.47;;;25.20;99.90;;;;;;4995513;28;20105;-46
2022/11/15 10:17:26;;;;;;;13.57;6.78;;;25.20;99.90;;;;;;4995562;28;20089;-46
2022/11/15 10:20:01;;;;;;;10.65;6.68;;;25.20;99.90;;;;;;4995504;28;20470;-46
2022/11/15 10:22:27;;;;;;;11.38;8.32;;;25.30;99.90;;;;;;4995482;28;20019;-45
2022/11/15 10:25:19;;;;;;;12.15;8.23;;;25.30;99.90;;;;;;4995258;28;20049;-46
2022/11/15 10:28:00;;;;;;;12.40;8.57;;;25.40;99.90;;;;;;4989753;28;20065;-46
2022/11/15 10:30:41;;;;;;;12.15;9.30;;;25.40;99.90;;;;;;4995102;28;20030;-46
2022/11/15 10:33:24;;;;;;;19.50;9.57;;;25.50;99.90;;;;;;4994709;28;20025;-46
2022/11/15 10:36:10;;;;;;;13.32;9.80;;;25.60;99.90;;;;;;4995259;28;20454;-46
2022/11/15 10:38:51;;;;;;;15.05;10.13;;;25.70;99.90;;;;;;4994850;28;20525;-46
2022/11/15 10:41:19;;;;;;;15.98;11.00;;;25.70;99.90;;;;;;4994942;28;20034;-46
2022/11/15 10:44:01;;;;;;;13.13;10.07;;;25.80;99.90;;;;;;4994991;28;20019;-46
2022/11/15 10:46:27;;;;;;;15.43;10.52;;;25.90;99.90;;;;;;4994983;28;20435;-46
2022/11/15 10:48:53;;;;;;;15.57;10.75;;;25.90;99.90;;;;;;4994823;28;20116;-46
2022/11/15 10:51:28;;;;;;;16.20;11.75;;;26.00;99.90;;;;;;4994868;28;20105;-46
2022/11/15 10:53:59;;;;;;;15.10;9.82;;;26.00;99.90;;;;;;4994802;28;20034;-46
2022/11/15 10:56:26;;;;;;;14.93;10.63;;;26.00;99.90;;;;;;4994455;28;20076;-45
2022/11/15 10:59:01;;;;;;;14.93;10.00;;;26.00;99.90;;;;;;4994531;28;20023;-45
2022/11/15 11:01:31;;;;;;;16.08;10.75;;;26.00;99.90;;;;;;4994449;28;20050;-46
2022/11/15 11:04:07;;;;;;;14.52;10.65;;;26.00;99.90;;;;;;4994567;28;20018;-46
2022/11/15 11:06:49;;;;;;;15.88;10.63;;;26.00;99.90;;;;;;4994314;28;20018;-45
2022/11/15 11:09:29;;;;;;;16.67;11.98;;;26.00;99.90;;;;;;4994431;28;20109;-45
2022/11/15 11:11:55;;;;;;;12.65;9.65;;;26.00;99.90;;;;;;4994294;28;20023;-46
2022/11/15 11:14:21;;;;;;;17.25;10.05;;;26.00;99.90;;;;;;4994373;28;20545;-46
2022/11/15 11:16:52;;;;;;;13.43;8.73;;;26.00;99.90;;;;;;4994352;28;20493;-45
2022/11/15 11:19:41;;;;;;;21.05;8.32;;;26.00;99.90;;;;;;4994352;28;20102;-46
2022/11/15 11:22:17;;;;;;;18.50;8.05;;;26.00;99.90;;;;;;4989296;28;20035;-46
2022/11/15 11:24:55;;;;;;;19.00;7.30;;;25.90;99.90;;;;;;4985866;28;20026;-46
2022/11/15 11:27:27;;;;;;;16.42;8.18;;;25.80;99.90;;;;;;4989081;28;20482;-46
2022/11/15 11:30:17;;;;;;;16.38;6.32;;;25.70;99.90;;;;;;4993497;28;20022;-46
2022/11/15 11:33:01;;;;;;;13.52;6.32;;;25.70;99.90;;;;;;4991327;28;20026;-46
2022/11/15 11:35:27;;;;;;;13.80;6.07;;;25.60;99.90;;;;;;4991472;28;20061;-46
2022/11/15 11:38:14;;;;;;;10.43;5.47;;;25.60;99.90;;;;;;4992733;28;20046;-46
2022/11/15 11:40:49;;;;;;;13.13;5.40;;;25.50;99.90;;;;;;4992230;28;20394;-46
2022/11/15 11:43:33;;;;;;;10.80;5.18;;;25.50;99.90;;;;;;4992847;28;20029;-45
2022/11/15 11:46:47;;;;;;;11.80;5.45;;;25.50;99.90;;;;;;5004510;28;20022;-46
2022/11/15 11:49:29;;;;;;;10.88;4.10;;;25.50;99.90;;;;;;4970018;28;20391;-46
2022/11/15 11:52:16;;;;;;;11.73;4.28;;;25.30;99.90;;;;;;4990067;28;20037;-50
2022/11/15 11:55:13;;;;;;;19.55;6.47;;;25.20;99.90;;;;;;4991247;28;20018;-46
2022/11/15 11:57:57;;;;;;;14.52;4.32;;;25.00;99.90;;;;;;4986601;28;20080;-46
2022/11/15 12:00:27;;;;;;;10.82;4.00;;;25.00;99.90;;;;;;4993612;28;20049;-46
2022/11/15 12:03:07;;;;;;;16.35;4.47;;;24.90;99.90;;;;;;4992761;28;20026;-44
2022/11/15 12:05:39;;;;;;;15.40;4.32;;;24.90;99.90;;;;;;4990808;28;20379;-45
2022/11/15 12:08:39;;;;;;;13.10;4.20;;;24.90;99.90;;;;;;4986379;28;20031;-46
2022/11/15 12:11:31;;;;;;;17.15;4.82;;;24.90;99.90;;;;;;4988877;28;20045;-46
2022/11/15 12:14:01;;;;;;;13.65;4.38;;;24.90;99.90;;;;;;4990648;28;20109;-47
2022/11/15 12:16:32;;;;;;;9.57;4.30;;;25.00;99.90;;;;;;4987736;28;20046;-46
2022/11/15 12:19:03;;;;;;;12.30;4.65;;;25.00;99.90;;;;;;4989117;28;20027;-51
2022/11/15 12:21:41;;;;;;;13.02;5.28;;;25.10;99.90;;;;;;4992900;28;20039;-46
2022/11/15 12:24:22;;;;;;;16.00;5.88;;;25.10;99.90;;;;;;4990179;28;20030;-47
2022/11/15 12:27:05;;;;;;;20.98;6.13;;;25.20;99.90;;;;;;4990290;28;20084;-46
2022/11/15 12:29:40;;;;;;;14.60;5.97;;;25.20;99.90;;;;;;4988258;28;20382;-46
2022/11/15 12:32:18;;;;;;;15.85;5.30;;;25.30;99.90;;;;;;4992846;28;20485;-47
2022/11/15 12:34:48;;;;;;;11.43;6.13;;;25.30;99.90;;;;;;4992499;28;20410;-47
2022/11/15 12:37:38;;;;;;;16.92;7.18;;;25.40;99.90;;;;;;4994151;28;20018;-46
2022/11/15 12:40:07;;;;;;;15.02;6.40;;;25.40;99.90;;;;;;4990547;28;20033;-46
2022/11/15 12:42:56;;;;;;;15.32;6.75;;;25.50;99.90;;;;;;4989630;28;20057;-46
2022/11/15 12:45:36;;;;;;;15.85;5.47;;;25.60;99.90;;;;;;4993122;28;20057;-46
2022/11/15 12:48:17;;;;;;;15.27;5.97;;;25.60;99.90;;;;;;4992732;28;20062;-47
2022/11/15 12:50:55;;;;;;;12.27;5.85;;;25.60;99.90;;;;;;4993240;28;20034;-47
2022/11/15 12:53:26;;;;;;;13.45;5.60;;;25.60;99.90;;;;;;4992431;28;20383;-46
2022/11/15 12:56:04;;;;;;;17.60;6.18;;;25.60;99.90;;;;;;4994992;28;20101;-47
2022/11/15 12:58:54;;;;;;;16.13;6.38;;;25.60;99.90;;;;;;4995100;28;20030;-46
2022/11/15 13:01:37;;;;;;;11.40;5.07;;;25.50;99.90;;;;;;4993867;28;20061;-46
2022/11/15 13:04:23;;;;;;;16.75;7.15;;;25.40;99.90;;;;;;4996353;28;20062;-47
2022/11/15 13:06:54;;;;;;;15.10;4.45;;;25.30;99.90;;;;;;4996993;28;20363;-46
2022/11/15 13:09:32;;;;;;;12.55;5.80;;;25.10;99.90;;;;;;4996771;28;20034;-46
2022/11/15 13:12:01;;;;;;;12.10;5.78;;;25.00;99.90;;;;;;4996856;28;20054;-46
2022/11/15 13:14:51;;;;;;;15.02;5.97;;;25.00;99.90;;;;;;4991878;28;20019;-46